Time;durP1;ratioP1;P1;durP2;ratioP2;P2;SDS_P1;SDS_P2;PMS_P1;PMS_P2;Temp;Humidity;BMP_temperature;BMP_pressure;BME280_temperature;BME280_humidity;BME280_pressure;Samples;Min_cycle;Max_cycle;Signal;HPM_P1;HPM_P2
2021/04/03 00:02:05;;;;;;;;;;;19.30;59.80;;;;;;5050353;28;19920;-74
2021/04/03 00:04:31;;;;;;;;;;;19.30;59.80;;;;;;5034968;28;19975;-75
2021/04/03 00:06:56;;;;;;;;;;;19.30;59.80;;;;;;5046793;28;20259;-75
2021/04/03 00:09:22;;;;;;;;;;;19.30;59.80;;;;;;5042339;28;19920;-74
2021/04/03 00:11:47;;;;;;;;;;;19.30;59.80;;;;;;5051689;28;19912;-75
2021/04/03 00:14:13;;;;;;;;;;;19.30;59.90;;;;;;5055649;28;19914;-75
2021/04/03 00:16:38;;;;;;;;;;;19.30;59.80;;;;;;5049314;28;19959;-74
2021/04/03 00:19:04;;;;;;;;;;;19.30;59.80;;;;;;5063890;28;20385;-75
2021/04/03 00:21:29;;;;;;;;;;;19.30;59.80;;;;;;5033319;28;19916;-75
2021/04/03 00:23:55;;;;;;;;;;;19.30;59.80;;;;;;5032865;28;20007;-74
2021/04/03 00:26:21;;;;;;;;;;;19.30;59.90;;;;;;5051472;28;19942;-74
2021/04/03 00:28:48;;;;;;;;;;;19.30;59.90;;;;;;5033985;28;20381;-77
2021/04/03 00:31:13;;;;;;;;;;;19.30;59.90;;;;;;5049466;28;19913;-75
2021/04/03 00:33:39;;;;;;;;;;;19.20;59.90;;;;;;5048218;28;19920;-74
2021/04/03 00:36:05;;;;;;;;;;;19.30;59.90;;;;;;5052178;28;19925;-74
2021/04/03 00:38:30;;;;;;;;;;;19.30;59.90;;;;;;5041902;28;19921;-75
2021/04/03 00:40:56;;;;;;;;;;;19.30;59.90;;;;;;5035401;28;20070;-74
2021/04/03 00:43:23;;;;;;;;;;;19.30;60.00;;;;;;5029018;28;19924;-75
2021/04/03 00:45:49;;;;;;;;;;;19.30;59.90;;;;;;5024230;28;19920;-74
2021/04/03 00:48:15;;;;;;;;;;;19.30;59.90;;;;;;5029831;28;19959;-74
2021/04/03 00:50:44;;;;;;;;;;;19.30;59.90;;;;;;5023181;28;19960;-75
2021/04/03 00:53:12;;;;;;;;;;;19.30;59.90;;;;;;5025923;28;20011;-75
2021/04/03 00:55:37;;;;;;;;;;;19.30;59.90;;;;;;5031265;28;19913;-74
2021/04/03 00:58:03;;;;;;;;;;;19.30;59.90;;;;;;5027046;28;20011;-76
2021/04/03 01:00:29;;;;;;;;;;;19.30;59.90;;;;;;5031151;28;19939;-75
2021/04/03 01:02:54;;;;;;;;;;;19.20;59.90;;;;;;5029891;28;19914;-74
2021/04/03 01:05:21;;;;;;;;;;;19.30;60.00;;;;;;5030838;28;19952;-75
2021/04/03 01:07:47;;;;;;;;;;;19.30;59.90;;;;;;5030491;28;20438;-76
2021/04/03 01:10:15;;;;;;;;;;;19.20;59.90;;;;;;5031499;28;19956;-76
2021/04/03 01:12:50;;;;;;;;;;;19.20;59.90;;;;;;5028073;28;20124;-75
2021/04/03 01:15:15;;;;;;;;;;;19.20;59.90;;;;;;5023509;28;19967;-75
2021/04/03 01:17:44;;;;;;;;;;;19.20;59.90;;;;;;5031065;28;19920;-75
2021/04/03 01:20:28;;;;;;;;;;;19.20;59.90;;;;;;5025812;28;20359;-75
2021/04/03 01:22:59;;;;;;;;;;;19.20;59.90;;;;;;5031351;28;19913;-75
2021/04/03 01:25:36;;;;;;;;;;;19.20;60.00;;;;;;5056504;28;19967;-74
2021/04/03 01:28:01;;;;;;;;;;;19.20;59.90;;;;;;5030052;28;19917;-77
2021/04/03 01:30:27;;;;;;;;;;;19.20;59.90;;;;;;5031275;28;19921;-75
2021/04/03 01:33:02;;;;;;;;;;;19.20;59.90;;;;;;5029191;28;20355;-75
2021/04/03 01:35:33;;;;;;;;;;;19.20;59.90;;;;;;5017901;28;19966;-75
2021/04/03 01:38:04;;;;;;;;;;;19.20;59.90;;;;;;5030193;28;19917;-75
2021/04/03 01:40:30;;;;;;;;;;;19.20;59.90;;;;;;5023510;28;19917;-74
2021/04/03 01:43:04;;;;;;;;;;;19.20;59.90;;;;;;5029579;28;19921;-75
2021/04/03 01:45:30;;;;;;;;;;;19.20;59.90;;;;;;5030847;28;20003;-74
2021/04/03 01:47:56;;;;;;;;;;;19.20;59.90;;;;;;5062569;28;19916;-74
2021/04/03 01:50:23;;;;;;;;;;;19.20;60.00;;;;;;5017122;28;19920;-75
2021/04/03 01:52:49;;;;;;;;;;;19.20;60.00;;;;;;5016950;28;20334;-74
2021/04/03 01:55:16;;;;;;;;;;;19.20;59.90;;;;;;5031075;28;19952;-75
2021/04/03 01:57:45;;;;;;;;;;;19.20;59.80;;;;;;5029409;28;19927;-75
2021/04/03 02:00:15;;;;;;;;;;;19.20;59.90;;;;;;5049697;28;20267;-75
2021/04/03 02:02:41;;;;;;;;;;;19.20;59.90;;;;;;5024132;28;19914;-76
2021/04/03 02:05:14;;;;;;;;;;;19.20;59.90;;;;;;5021179;28;19913;-75
2021/04/03 02:07:41;;;;;;;;;;;19.20;59.90;;;;;;5029237;28;19913;-74
2021/04/03 02:10:08;;;;;;;;;;;19.20;59.90;;;;;;5013804;28;20307;-74
2021/04/03 02:12:35;;;;;;;;;;;19.20;59.90;;;;;;5029762;28;19913;-75
2021/04/03 02:15:02;;;;;;;;;;;19.20;59.90;;;;;;5029682;28;20725;-75
2021/04/03 02:17:28;;;;;;;;;;;19.20;59.90;;;;;;5025629;28;19979;-75
2021/04/03 02:19:54;;;;;;;;;;;19.20;59.90;;;;;;5014958;28;19932;-74
2021/04/03 02:22:19;;;;;;;;;;;19.20;60.00;;;;;;5026405;28;19913;-74
2021/04/03 02:24:45;;;;;;;;;;;19.20;60.00;;;;;;5019616;28;19924;-75
2021/04/03 02:27:11;;;;;;;;;;;19.20;59.90;;;;;;5021603;28;19994;-75
2021/04/03 02:29:37;;;;;;;;;;;19.20;59.90;;;;;;5030250;28;20000;-75
2021/04/03 02:32:07;;;;;;;;;;;19.20;59.90;;;;;;5032749;28;19920;-75
2021/04/03 02:34:38;;;;;;;;;;;19.20;60.00;;;;;;5027933;28;20301;-76
2021/04/03 02:37:03;;;;;;;;;;;19.20;60.00;;;;;;5028294;28;20071;-75
2021/04/03 02:39:29;;;;;;;;;;;19.10;60.00;;;;;;5030360;28;20016;-74
2021/04/03 02:42:09;;;;;;;;;;;19.20;60.00;;;;;;5025777;28;19928;-75
2021/04/03 02:44:38;;;;;;;;;;;19.20;60.00;;;;;;5048354;28;19917;-74
2021/04/03 02:47:04;;;;;;;;;;;19.20;59.90;;;;;;5024920;28;19920;-74
2021/04/03 02:49:34;;;;;;;;;;;19.20;60.00;;;;;;5039819;28;20262;-75
2021/04/03 02:52:01;;;;;;;;;;;19.20;59.90;;;;;;5044853;28;19913;-74
2021/04/03 02:54:32;;;;;;;;;;;19.20;60.00;;;;;;5042994;28;19913;-75
2021/04/03 02:57:06;;;;;;;;;;;19.20;60.00;;;;;;5030925;28;20350;-74
2021/04/03 02:59:33;;;;;;;;;;;19.10;59.90;;;;;;5046358;28;19921;-75
2021/04/03 03:02:02;;;;;;;;;;;19.20;60.00;;;;;;5032897;28;20401;-76
2021/04/03 03:04:28;;;;;;;;;;;19.20;60.00;;;;;;5018470;28;19920;-75
2021/04/03 03:06:54;;;;;;;;;;;19.20;60.00;;;;;;5049083;28;19921;-75
2021/04/03 03:09:20;;;;;;;;;;;19.10;60.00;;;;;;5031977;28;20282;-75
2021/04/03 03:11:49;;;;;;;;;;;19.10;59.90;;;;;;5043210;28;19920;-76
2021/04/03 03:14:15;;;;;;;;;;;19.10;60.00;;;;;;5033553;28;19920;-75
2021/04/03 03:16:41;;;;;;;;;;;19.10;59.90;;;;;;5031902;28;19928;-76
2021/04/03 03:19:08;;;;;;;;;;;19.10;60.00;;;;;;5032208;28;19917;-76
2021/04/03 03:21:34;;;;;;;;;;;19.10;59.90;;;;;;5043939;28;19952;-76
2021/04/03 03:24:00;;;;;;;;;;;19.10;60.00;;;;;;5021350;28;19966;-76
2021/04/03 03:26:25;;;;;;;;;;;19.10;59.90;;;;;;5036544;28;20015;-75
2021/04/03 03:28:53;;;;;;;;;;;19.10;59.90;;;;;;5051116;28;19917;-76
2021/04/03 03:31:18;;;;;;;;;;;19.10;60.00;;;;;;5045867;28;19913;-75
2021/04/03 03:33:44;;;;;;;;;;;19.10;59.90;;;;;;5019321;28;20063;-75
2021/04/03 03:36:10;;;;;;;;;;;19.10;60.00;;;;;;5054181;28;20293;-75
2021/04/03 03:38:36;;;;;;;;;;;19.10;60.00;;;;;;5050006;28;19924;-78
2021/04/03 03:41:03;;;;;;;;;;;19.10;60.00;;;;;;5035003;28;20007;-76
2021/04/03 03:43:28;;;;;;;;;;;19.10;59.90;;;;;;5039975;28;19921;-75
2021/04/03 03:45:54;;;;;;;;;;;19.10;60.00;;;;;;5044848;28;20004;-75
2021/04/03 03:48:20;;;;;;;;;;;19.10;60.00;;;;;;5052523;28;20416;-76
2021/04/03 03:50:45;;;;;;;;;;;19.10;60.00;;;;;;5035492;28;19939;-75
2021/04/03 03:53:15;;;;;;;;;;;19.10;60.00;;;;;;5056767;28;19924;-76
2021/04/03 03:55:41;;;;;;;;;;;19.10;60.00;;;;;;5022899;28;20337;-76
2021/04/03 03:58:06;;;;;;;;;;;19.10;59.90;;;;;;5048454;28;19917;-76
2021/04/03 04:00:32;;;;;;;;;;;19.10;60.00;;;;;;5035249;28;19917;-77
2021/04/03 04:02:57;;;;;;;;;;;19.10;60.00;;;;;;5048974;28;19920;-76
2021/04/03 04:05:23;;;;;;;;;;;19.10;60.00;;;;;;5046676;28;19913;-76
2021/04/03 04:07:49;;;;;;;;;;;19.10;60.10;;;;;;5050082;28;20017;-76
2021/04/03 04:10:14;;;;;;;;;;;19.10;60.00;;;;;;5035624;28;19921;-76
2021/04/03 04:12:40;;;;;;;;;;;19.10;60.10;;;;;;5045268;28;19917;-76
2021/04/03 04:15:06;;;;;;;;;;;19.00;60.10;;;;;;5020837;28;19920;-75
2021/04/03 04:17:37;;;;;;;;;;;19.10;60.00;;;;;;5051424;28;19924;-76
2021/04/03 04:20:03;;;;;;;;;;;19.10;60.10;;;;;;5022422;28;19917;-76
2021/04/03 04:22:28;;;;;;;;;;;19.00;60.10;;;;;;5032401;28;19916;-78
2021/04/03 04:24:54;;;;;;;;;;;19.10;60.10;;;;;;5035513;28;20058;-76
2021/04/03 04:27:19;;;;;;;;;;;19.10;60.10;;;;;;5039514;28;19919;-76
2021/04/03 04:29:45;;;;;;;;;;;19.00;60.10;;;;;;5035358;28;20345;-76
2021/04/03 04:32:10;;;;;;;;;;;19.00;60.10;;;;;;5058009;28;19919;-75
2021/04/03 04:34:36;;;;;;;;;;;19.10;60.10;;;;;;5035052;28;20210;-75
2021/04/03 04:37:01;;;;;;;;;;;19.10;60.10;;;;;;5030610;28;19971;-76
2021/04/03 04:39:27;;;;;;;;;;;19.10;60.10;;;;;;5035650;28;20007;-76
2021/04/03 04:41:52;;;;;;;;;;;19.10;60.10;;;;;;5048748;28;20382;-76
2021/04/03 04:44:18;;;;;;;;;;;19.00;60.10;;;;;;5044714;28;19956;-76
2021/04/03 04:46:43;;;;;;;;;;;19.00;60.10;;;;;;5050787;28;20422;-76
2021/04/03 04:49:09;;;;;;;;;;;19.10;60.10;;;;;;5053365;28;20393;-76
2021/04/03 04:51:34;;;;;;;;;;;19.10;60.10;;;;;;5045107;28;19913;-75
2021/04/03 04:54:00;;;;;;;;;;;19.10;60.10;;;;;;5059178;28;19920;-75
2021/04/03 04:56:25;;;;;;;;;;;19.10;60.10;;;;;;5047640;28;20276;-76
2021/04/03 04:58:51;;;;;;;;;;;19.00;60.10;;;;;;5042898;28;19921;-77
2021/04/03 05:01:16;;;;;;;;;;;19.00;60.20;;;;;;5034142;28;19913;-76
2021/04/03 05:03:42;;;;;;;;;;;19.00;60.20;;;;;;5033870;28;20349;-77
2021/04/03 05:06:07;;;;;;;;;;;19.00;60.10;;;;;;5048934;28;20343;-75
2021/04/03 05:08:38;;;;;;;;;;;19.00;60.10;;;;;;5052490;28;19995;-76
2021/04/03 05:11:03;;;;;;;;;;;19.00;60.10;;;;;;5024466;28;20034;-75
2021/04/03 05:13:29;;;;;;;;;;;19.00;60.00;;;;;;5026152;28;20019;-75
2021/04/03 05:15:55;;;;;;;;;;;19.10;60.00;;;;;;5034199;28;19913;-75
2021/04/03 05:18:20;;;;;;;;;;;19.10;60.10;;;;;;5045999;28;19916;-75
2021/04/03 05:20:46;;;;;;;;;;;19.00;60.10;;;;;;5040229;28;19940;-75
2021/04/03 05:23:11;;;;;;;;;;;19.00;60.00;;;;;;5037619;28;19995;-75
2021/04/03 05:25:37;;;;;;;;;;;19.00;60.00;;;;;;5023439;28;19919;-75
2021/04/03 05:28:02;;;;;;;;;;;19.10;60.00;;;;;;5050629;28;20358;-75
2021/04/03 05:30:28;;;;;;;;;;;19.10;60.00;;;;;;5033286;28;20392;-75
2021/04/03 05:32:53;;;;;;;;;;;19.00;59.90;;;;;;5034218;28;20272;-75
2021/04/03 05:35:19;;;;;;;;;;;19.00;60.00;;;;;;5031879;28;19916;-75
2021/04/03 05:37:45;;;;;;;;;;;19.00;60.00;;;;;;5043932;28;19924;-76
2021/04/03 05:40:11;;;;;;;;;;;19.00;60.00;;;;;;5032613;28;20003;-75
2021/04/03 05:42:37;;;;;;;;;;;19.00;60.00;;;;;;5050482;28;20024;-74
2021/04/03 05:45:04;;;;;;;;;;;19.00;60.00;;;;;;5040410;28;19921;-75
2021/04/03 05:47:35;;;;;;;;;;;19.00;60.00;;;;;;5048517;28;19913;-74
2021/04/03 05:50:03;;;;;;;;;;;19.10;60.00;;;;;;5026407;28;20295;-74
2021/04/03 05:52:28;;;;;;;;;;;19.10;59.90;;;;;;5042111;28;20008;-74
2021/04/03 05:54:54;;;;;;;;;;;19.00;59.90;;;;;;5039619;28;19999;-74
2021/04/03 05:57:24;;;;;;;;;;;19.10;59.90;;;;;;5047736;28;20366;-74
2021/04/03 05:59:50;;;;;;;;;;;19.10;59.90;;;;;;5033924;28;19927;-74
2021/04/03 06:02:15;;;;;;;;;;;19.10;59.90;;;;;;5022353;28;19996;-74
2021/04/03 06:04:41;;;;;;;;;;;19.10;59.90;;;;;;5038456;28;19921;-77
2021/04/03 06:07:15;;;;;;;;;;;19.10;59.90;;;;;;5034665;28;19913;-75
2021/04/03 06:09:42;;;;;;;;;;;19.10;59.90;;;;;;5048898;28;19952;-76
2021/04/03 06:12:13;;;;;;;;;;;19.10;59.90;;;;;;5033359;28;20412;-75
2021/04/03 06:14:38;;;;;;;;;;;19.10;59.90;;;;;;5034419;28;19912;-75
2021/04/03 06:17:04;;;;;;;;;;;19.10;59.90;;;;;;5036693;28;19917;-75
2021/04/03 06:19:31;;;;;;;;;;;19.10;59.80;;;;;;5028937;28;19924;-75
2021/04/03 06:21:58;;;;;;;;;;;19.10;59.80;;;;;;5042893;28;19967;-75
2021/04/03 06:24:31;;;;;;;;;;;19.10;59.80;;;;;;5029861;28;19919;-72
2021/04/03 06:27:07;;;;;;;;;;;19.10;59.80;;;;;;5042211;28;19913;-73
2021/04/03 06:29:37;;;;;;;;;;;19.10;59.80;;;;;;5020752;28;19920;-73
2021/04/03 06:32:03;;;;;;;;;;;19.20;59.80;;;;;;5048954;28;19913;-75
2021/04/03 06:34:33;;;;;;;;;;;19.10;59.70;;;;;;5047916;28;19913;-74
2021/04/03 06:36:59;;;;;;;;;;;19.20;59.80;;;;;;5033255;28;19916;-74
2021/04/03 06:39:26;;;;;;;;;;;19.20;59.70;;;;;;5039555;28;20316;-73
2021/04/03 06:41:52;;;;;;;;;;;19.10;59.70;;;;;;5046541;28;19932;-77
2021/04/03 06:44:19;;;;;;;;;;;19.20;59.70;;;;;;5034985;28;20011;-73
2021/04/03 06:46:46;;;;;;;;;;;19.10;59.60;;;;;;5049018;28;19912;-73
2021/04/03 06:49:12;;;;;;;;;;;19.20;59.70;;;;;;5067370;28;19946;-73
2021/04/03 06:51:38;;;;;;;;;;;19.10;59.80;;;;;;5036112;28;20385;-72
2021/04/03 06:54:04;;;;;;;;;;;19.10;59.80;;;;;;5030408;28;19921;-73
2021/04/03 06:56:31;;;;;;;;;;;19.20;59.80;;;;;;5052821;28;20354;-72
2021/04/03 06:59:05;;;;;;;;;;;19.20;59.80;;;;;;5024978;28;19952;-73
2021/04/03 07:01:42;;;;;;;;;;;19.20;59.80;;;;;;5053411;28;19912;-73
2021/04/03 07:04:28;;;;;;;;;;;19.20;59.80;;;;;;5070958;28;19947;-73
2021/04/03 07:06:58;;;;;;;;;;;19.20;59.70;;;;;;5031611;28;20412;-74
2021/04/03 07:09:24;;;;;;;;;;;19.20;59.70;;;;;;5037321;28;20365;-73
2021/04/03 07:11:52;;;;;;;;;;;19.20;59.60;;;;;;5049693;28;19917;-74
2021/04/03 07:14:18;;;;;;;;;;;19.20;59.70;;;;;;5044497;28;19960;-74
2021/04/03 07:16:44;;;;;;;;;;;19.20;59.60;;;;;;5031928;28;19924;-74
2021/04/03 07:19:10;;;;;;;;;;;19.20;59.60;;;;;;5053268;28;20397;-74
2021/04/03 07:21:35;;;;;;;;;;;19.20;59.60;;;;;;5034186;28;19958;-74
2021/04/03 07:24:01;;;;;;;;;;;19.20;59.60;;;;;;5037418;28;19960;-76
2021/04/03 07:26:28;;;;;;;;;;;19.20;59.60;;;;;;5042761;28;19940;-74
2021/04/03 07:28:54;;;;;;;;;;;19.20;59.60;;;;;;5034053;28;19913;-74
2021/04/03 07:31:35;;;;;;;;;;;19.20;59.60;;;;;;5047276;28;19913;-75
2021/04/03 07:34:06;;;;;;;;;;;19.30;59.50;;;;;;5044296;28;19990;-74
2021/04/03 07:36:33;;;;;;;;;;;19.20;59.50;;;;;;5064278;28;19925;-75
2021/04/03 07:38:58;;;;;;;;;;;19.30;59.50;;;;;;5053352;28;19921;-75
2021/04/03 07:41:24;;;;;;;;;;;19.30;59.40;;;;;;5029212;28;19919;-74
2021/04/03 07:43:50;;;;;;;;;;;19.30;59.40;;;;;;5046571;28;20393;-75
2021/04/03 07:46:33;;;;;;;;;;;19.30;59.40;;;;;;5052068;28;20366;-75
2021/04/03 07:48:59;;;;;;;;;;;19.20;59.50;;;;;;5044170;28;19913;-75
2021/04/03 07:51:25;;;;;;;;;;;19.20;59.50;;;;;;5051485;28;19928;-75
2021/04/03 07:53:51;;;;;;;;;;;19.30;59.40;;;;;;5027381;28;20007;-75
2021/04/03 07:56:18;;;;;;;;;;;19.30;59.40;;;;;;5032509;28;19920;-75
2021/04/03 07:58:48;;;;;;;;;;;19.30;59.40;;;;;;5052375;28;19924;-75
2021/04/03 08:01:14;;;;;;;;;;;19.30;59.30;;;;;;5049379;28;20343;-75
2021/04/03 08:03:57;;;;;;;;;;;19.30;59.30;;;;;;5040437;28;19944;-75
2021/04/03 08:06:30;;;;;;;;;;;19.30;59.30;;;;;;5064179;28;20012;-75
2021/04/03 08:08:56;;;;;;;;;;;19.30;59.40;;;;;;5046848;28;19912;-75
2021/04/03 08:11:28;;;;;;;;;;;19.30;59.30;;;;;;5045148;28;20337;-76
2021/04/03 08:13:54;;;;;;;;;;;19.30;59.20;;;;;;5033611;28;20445;-75
2021/04/03 08:16:20;;;;;;;;;;;19.30;59.30;;;;;;5056524;28;19963;-75
2021/04/03 08:18:47;;;;;;;;;;;19.30;59.30;;;;;;5045205;28;19924;-76
2021/04/03 08:21:13;;;;;;;;;;;19.30;59.40;;;;;;5046074;28;19917;-75
2021/04/03 08:23:40;;;;;;;;;;;19.30;59.40;;;;;;5024543;28;20071;-76
2021/04/03 08:26:06;;;;;;;;;;;19.20;59.40;;;;;;5067907;28;19912;-75
2021/04/03 08:28:32;;;;;;;;;;;19.30;59.30;;;;;;5035090;28;19917;-75
2021/04/03 08:31:18;;;;;;;;;;;19.30;59.20;;;;;;5046982;28;19917;-75
2021/04/03 08:33:45;;;;;;;;;;;19.30;59.30;;;;;;5043753;28;20011;-77
2021/04/03 08:36:14;;;;;;;;;;;19.30;59.30;;;;;;5029331;28;19966;-75
2021/04/03 08:38:41;;;;;;;;;;;19.30;59.30;;;;;;5033958;28;19924;-75
2021/04/03 08:41:06;;;;;;;;;;;19.30;59.30;;;;;;5033374;28;20332;-75
2021/04/03 08:43:33;;;;;;;;;;;19.30;59.30;;;;;;5042345;28;20401;-75
2021/04/03 08:46:09;;;;;;;;;;;19.30;59.30;;;;;;5033720;28;19913;-73
2021/04/03 08:48:37;;;;;;;;;;;19.30;59.40;;;;;;5028218;28;19913;-73
2021/04/03 08:51:03;;;;;;;;;;;19.30;59.30;;;;;;5047582;28;19917;-76
2021/04/03 08:53:36;;;;;;;;;;;19.30;59.30;;;;;;5043578;28;20432;-73
2021/04/03 08:56:02;;;;;;;;;;;19.30;59.30;;;;;;5052424;28;19940;-74
2021/04/03 08:58:28;;;;;;;;;;;19.30;59.20;;;;;;5032185;28;19967;-73
2021/04/03 09:00:53;;;;;;;;;;;19.30;59.10;;;;;;5048474;28;20275;-73
2021/04/03 09:03:25;;;;;;;;;;;19.30;59.00;;;;;;5077949;28;20373;-73
2021/04/03 09:05:50;;;;;;;;;;;19.30;58.90;;;;;;5062829;28;19929;-74
2021/04/03 09:08:27;;;;;;;;;;;19.40;58.80;;;;;;5049838;28;19917;-75
2021/04/03 09:10:56;;;;;;;;;;;19.30;58.70;;;;;;5023022;28;19928;-74
2021/04/03 09:13:22;;;;;;;;;;;19.40;58.80;;;;;;5047065;28;19924;-74
2021/04/03 09:15:48;;;;;;;;;;;19.40;58.70;;;;;;5025030;28;19913;-77
2021/04/03 09:18:15;;;;;;;;;;;19.40;58.70;;;;;;5042356;28;19921;-74
2021/04/03 09:20:47;;;;;;;;;;;19.40;58.50;;;;;;5049759;28;19925;-74
2021/04/03 09:23:13;;;;;;;;;;;19.40;58.50;;;;;;5049864;28;19956;-74
2021/04/03 09:25:39;;;;;;;;;;;19.50;58.50;;;;;;5043307;28;19948;-73
2021/04/03 09:28:06;;;;;;;;;;;19.50;58.50;;;;;;5052681;28;19962;-77
2021/04/03 09:30:39;;;;;;;;;;;19.50;58.10;;;;;;5025143;28;20311;-76
2021/04/03 09:33:18;;;;;;;;;;;19.50;58.30;;;;;;5046976;28;19917;-74
2021/04/03 09:35:43;;;;;;;;;;;19.50;58.30;;;;;;5017413;28;19914;-75
2021/04/03 09:38:09;;;;;;;;;;;19.40;58.40;;;;;;5044396;28;19924;-74
2021/04/03 09:40:36;;;;;;;;;;;19.40;58.50;;;;;;5043097;28;19991;-77
2021/04/03 09:43:01;;;;;;;;;;;19.40;58.60;;;;;;5031723;28;20331;-77
2021/04/03 09:45:27;;;;;;;;;;;19.40;58.60;;;;;;5048671;28;19920;-75
2021/04/03 09:47:55;;;;;;;;;;;19.40;58.50;;;;;;5048674;28;19913;-74
2021/04/03 09:50:20;;;;;;;;;;;19.40;58.40;;;;;;5031862;28;19962;-76
2021/04/03 09:52:46;;;;;;;;;;;19.50;58.40;;;;;;5060818;28;19917;-76
2021/04/03 09:55:11;;;;;;;;;;;19.40;58.30;;;;;;5045656;28;20378;-75
2021/04/03 09:57:37;;;;;;;;;;;19.40;58.50;;;;;;5036097;28;19923;-76
2021/04/03 10:00:03;;;;;;;;;;;19.40;58.50;;;;;;5037023;28;20352;-76
2021/04/03 10:02:28;;;;;;;;;;;19.40;58.70;;;;;;5067965;28;19948;-75
2021/04/03 10:04:54;;;;;;;;;;;19.40;58.70;;;;;;5033686;28;19967;-75
2021/04/03 10:07:19;;;;;;;;;;;19.40;58.60;;;;;;5025216;28;19936;-75
2021/04/03 10:09:45;;;;;;;;;;;19.40;58.50;;;;;;5018547;28;19913;-76
2021/04/03 10:12:15;;;;;;;;;;;19.50;58.50;;;;;;5042065;28;20290;-75
2021/04/03 10:14:46;;;;;;;;;;;19.50;58.40;;;;;;5038817;28;20003;-76
2021/04/03 10:17:11;;;;;;;;;;;19.50;58.30;;;;;;5060886;28;19920;-76
2021/04/03 10:19:37;;;;;;;;;;;19.50;58.20;;;;;;5034817;28;19920;-75
2021/04/03 10:22:13;;;;;;;;;;;19.60;58.10;;;;;;5035036;28;20643;-76
2021/04/03 10:24:39;;;;;;;;;;;19.50;58.10;;;;;;5027556;28;19983;-76
2021/04/03 10:27:05;;;;;;;;;;;19.60;58.10;;;;;;5037751;28;20398;-75
2021/04/03 10:29:30;;;;;;;;;;;19.60;58.00;;;;;;5030694;28;19912;-77
2021/04/03 10:31:56;;;;;;;;;;;19.70;58.00;;;;;;5036067;28;20386;-77
2021/04/03 10:34:24;;;;;;;;;;;19.70;57.80;;;;;;5034986;28;19996;-77
2021/04/03 10:36:50;;;;;;;;;;;19.70;57.80;;;;;;5050775;28;19917;-76
2021/04/03 10:39:15;;;;;;;;;;;19.70;57.70;;;;;;5029868;28;19940;-77
2021/04/03 10:41:41;;;;;;;;;;;19.70;57.70;;;;;;5030070;28;19928;-77
2021/04/03 10:44:06;;;;;;;;;;;19.70;57.80;;;;;;5037679;28;20282;-76
2021/04/03 10:46:32;;;;;;;;;;;19.70;57.80;;;;;;5028866;28;20374;-78
2021/04/03 10:48:57;;;;;;;;;;;19.70;57.70;;;;;;5034751;28;19919;-77
2021/04/03 10:51:23;;;;;;;;;;;19.70;57.70;;;;;;5069890;28;19912;-77
2021/04/03 10:53:49;;;;;;;;;;;19.70;57.70;;;;;;5052151;28;19916;-77
2021/04/03 10:56:19;;;;;;;;;;;19.70;57.70;;;;;;5034195;28;20007;-76
2021/04/03 10:58:45;;;;;;;;;;;19.70;57.70;;;;;;5030030;28;20260;-77
2021/04/03 11:01:14;;;;;;;;;;;19.70;57.70;;;;;;5029818;28;19920;-76
2021/04/03 11:03:44;;;;;;;;;;;19.70;57.60;;;;;;5040243;28;19912;-77
2021/04/03 11:06:19;;;;;;;;;;;19.70;57.50;;;;;;5054253;28;19912;-76
2021/04/03 11:08:58;;;;;;;;;;;19.80;57.50;;;;;;5022728;28;20008;-77
2021/04/03 11:11:24;;;;;;;;;;;19.80;57.50;;;;;;5005794;28;19914;-76
2021/04/03 11:13:49;;;;;;;;;;;19.80;57.50;;;;;;5020007;28;20278;-77
2021/04/03 11:16:15;;;;;;;;;;;19.70;57.50;;;;;;5025369;28;19912;-77
2021/04/03 11:18:40;;;;;;;;;;;19.70;57.50;;;;;;5046668;28;20338;-77
2021/04/03 11:21:06;;;;;;;;;;;19.80;57.40;;;;;;5037061;28;19919;-76
2021/04/03 11:23:32;;;;;;;;;;;19.70;57.40;;;;;;5022103;28;20302;-77
2021/04/03 11:25:57;;;;;;;;;;;19.80;57.40;;;;;;5033564;28;19913;-75
2021/04/03 11:28:27;;;;;;;;;;;19.80;57.50;;;;;;5022615;28;20270;-75
2021/04/03 11:30:59;;;;;;;;;;;19.70;57.50;;;;;;5046293;28;19917;-77
2021/04/03 11:33:26;;;;;;;;;;;19.70;57.60;;;;;;5040676;28;20295;-76
2021/04/03 11:35:51;;;;;;;;;;;19.70;57.60;;;;;;5034625;28;20383;-77
2021/04/03 11:38:19;;;;;;;;;;;19.70;57.70;;;;;;5047947;28;20000;-77
2021/04/03 11:40:44;;;;;;;;;;;19.70;57.70;;;;;;5034940;28;19924;-75
2021/04/03 11:43:10;;;;;;;;;;;19.60;57.80;;;;;;5033230;28;19921;-75
2021/04/03 11:45:39;;;;;;;;;;;19.60;57.90;;;;;;5051439;28;19912;-77
2021/04/03 11:48:06;;;;;;;;;;;19.60;57.90;;;;;;5044991;28;19919;-77
2021/04/03 11:50:32;;;;;;;;;;;19.60;58.00;;;;;;5045401;28;19940;-78
2021/04/03 11:52:58;;;;;;;;;;;19.60;58.10;;;;;;5041323;28;20370;-76
2021/04/03 11:55:26;;;;;;;;;;;19.50;58.10;;;;;;5047047;28;19912;-77
2021/04/03 11:57:55;;;;;;;;;;;19.60;58.10;;;;;;5035471;28;20023;-77
2021/04/03 12:00:26;;;;;;;;;;;19.50;58.00;;;;;;5052094;28;19921;-76
2021/04/03 12:02:58;;;;;;;;;;;19.60;58.00;;;;;;5040871;28;19978;-76
2021/04/03 12:05:23;;;;;;;;;;;19.60;58.00;;;;;;5055379;28;19913;-77
2021/04/03 12:07:56;;;;;;;;;;;19.60;58.00;;;;;;5034679;28;20298;-76
2021/04/03 12:10:21;;;;;;;;;;;19.60;58.00;;;;;;5052408;28;21549;-76
2021/04/03 12:12:47;;;;;;;;;;;19.60;57.90;;;;;;5049204;28;19987;-78
2021/04/03 12:15:13;;;;;;;;;;;19.60;57.90;;;;;;5052893;28;19913;-76
2021/04/03 12:17:38;;;;;;;;;;;19.60;57.90;;;;;;5057747;28;19917;-76
2021/04/03 12:20:05;;;;;;;;;;;19.60;58.00;;;;;;5030595;28;19947;-75
2021/04/03 12:22:30;;;;;;;;;;;19.50;58.10;;;;;;5029985;28;19920;-74
2021/04/03 12:24:56;;;;;;;;;;;19.50;58.20;;;;;;5034265;28;19914;-75
2021/04/03 12:27:24;;;;;;;;;;;19.40;58.40;;;;;;5052082;28;19916;-75
2021/04/03 12:30:08;;;;;;;;;;;19.40;58.50;;;;;;5046274;28;19913;-75
2021/04/03 12:32:41;;;;;;;;;;;19.40;58.50;;;;;;5028096;28;20007;-75
2021/04/03 12:35:07;;;;;;;;;;;19.40;58.60;;;;;;5030319;28;20003;-75
2021/04/03 12:37:33;;;;;;;;;;;19.30;58.60;;;;;;5048110;28;20003;-76
2021/04/03 12:39:58;;;;;;;;;;;19.40;58.60;;;;;;5049918;28;19917;-75
2021/04/03 12:42:24;;;;;;;;;;;19.40;58.60;;;;;;5031908;28;19964;-76
2021/04/03 12:44:50;;;;;;;;;;;19.40;58.50;;;;;;5048269;28;19927;-76
2021/04/03 12:47:16;;;;;;;;;;;19.40;58.50;;;;;;5045692;28;19919;-76
2021/04/03 12:49:41;;;;;;;;;;;19.40;58.40;;;;;;5033398;28;19913;-76
2021/04/03 12:52:07;;;;;;;;;;;19.40;58.40;;;;;;5060279;28;19913;-76
2021/04/03 12:54:32;;;;;;;;;;;19.40;58.30;;;;;;5046449;28;19913;-78
2021/04/03 12:56:58;;;;;;;;;;;19.50;58.30;;;;;;5044482;28;19920;-75
2021/04/03 12:59:28;;;;;;;;;;;19.50;58.20;;;;;;5036436;28;19967;-76
2021/04/03 13:01:54;;;;;;;;;;;19.50;58.10;;;;;;5033546;28;19912;-76
2021/04/03 13:04:24;;;;;;;;;;;19.50;58.10;;;;;;5048989;28;20412;-76
2021/04/03 13:06:50;;;;;;;;;;;19.60;58.00;;;;;;5049622;28;20541;-76
2021/04/03 13:09:16;;;;;;;;;;;19.60;58.00;;;;;;5042112;28;19964;-76
2021/04/03 13:11:52;;;;;;;;;;;19.60;57.90;;;;;;5046211;28;19913;-75
2021/04/03 13:14:18;;;;;;;;;;;19.60;57.80;;;;;;5033523;28;19921;-75
2021/04/03 13:16:44;;;;;;;;;;;19.60;57.80;;;;;;5041022;28;19999;-75
2021/04/03 13:19:09;;;;;;;;;;;19.60;57.80;;;;;;5049879;28;20393;-76
2021/04/03 13:21:35;;;;;;;;;;;19.60;57.80;;;;;;5034605;28;19913;-76
2021/04/03 13:24:01;;;;;;;;;;;19.60;57.90;;;;;;5033444;28;20268;-75
2021/04/03 13:26:26;;;;;;;;;;;19.50;58.00;;;;;;5030296;28;19913;-75
2021/04/03 13:28:57;;;;;;;;;;;19.50;58.00;;;;;;5021127;28;19917;-76
2021/04/03 13:31:28;;;;;;;;;;;19.50;58.00;;;;;;5045504;28;20266;-76
2021/04/03 13:33:54;;;;;;;;;;;19.50;58.00;;;;;;5048039;28;20370;-76
2021/04/03 13:36:23;;;;;;;;;;;19.50;58.00;;;;;;5031274;28;19919;-76
2021/04/03 13:38:48;;;;;;;;;;;19.60;57.90;;;;;;5032463;28;19917;-77
2021/04/03 13:41:14;;;;;;;;;;;19.60;57.80;;;;;;5047711;28;19913;-75
2021/04/03 13:43:40;;;;;;;;;;;19.60;57.80;;;;;;5025671;28;19919;-75
2021/04/03 13:46:05;;;;;;;;;;;19.60;57.80;;;;;;5031322;28;20011;-75
2021/04/03 13:48:36;;;;;;;;;;;19.60;57.90;;;;;;5037006;28;19913;-75
2021/04/03 13:51:01;;;;;;;;;;;19.60;57.90;;;;;;5045001;28;19913;-75
2021/04/03 13:53:32;;;;;;;;;;;19.60;57.90;;;;;;5044300;28;19913;-75
2021/04/03 13:56:03;;;;;;;;;;;19.60;57.90;;;;;;5024898;28;19978;-75
2021/04/03 13:58:34;;;;;;;;;;;19.50;57.90;;;;;;5043498;28;19917;-75
2021/04/03 14:00:59;;;;;;;;;;;19.50;58.00;;;;;;5040696;28;19917;-75
2021/04/03 14:03:25;;;;;;;;;;;19.50;58.10;;;;;;5015694;28;20000;-75
2021/04/03 14:05:52;;;;;;;;;;;19.50;58.20;;;;;;5020392;28;20040;-76
2021/04/03 14:08:17;;;;;;;;;;;19.40;58.30;;;;;;5051665;28;19913;-76
2021/04/03 14:10:43;;;;;;;;;;;19.40;58.30;;;;;;5031566;28;19920;-75
2021/04/03 14:13:08;;;;;;;;;;;19.40;58.40;;;;;;5047511;28;19920;-76
2021/04/03 14:15:34;;;;;;;;;;;19.40;58.50;;;;;;5048798;28;20276;-77
2021/04/03 14:18:00;;;;;;;;;;;19.30;58.50;;;;;;5049351;28;20007;-75